Terminal Aerodrome Forecast
Issued by NWS

Home | Current Version | Previous Version | Text Only | Print | Product List | Glossary On
Versions: 1 2 3 4 5 6 7 8 9 10 11 12 13 14 15 16 17 18
000
FTUS44 KHGX 240704 AAA
TAFSGR
TAF AMD
KSGR 240704Z 2407/2506 VRB05KT P6SM FEW250
     FM242100 19008KT P6SM SCT250
     FM250000 17004KT P6SM FEW250=

USA.gov is the U.S. government's official web portal to all federal, state and local government web resources and services.